createdAt,value
2023-04-11T00:00:02.827Z,1012.45
2023-04-11T00:05:04.215Z,1012.37
2023-04-11T00:10:03.424Z,1012.29
2023-04-11T00:15:03.181Z,1012.29
2023-04-11T00:20:02.931Z,1012.16
2023-04-11T00:25:03.733Z,1012.16
2023-04-11T00:30:03.430Z,1012.09
2023-04-11T00:35:03.033Z,1012
2023-04-11T00:40:02.789Z,1011.99
2023-04-11T00:45:03.643Z,1011.94
2023-04-11T00:50:03.498Z,1011.83
2023-04-11T00:55:03.134Z,1011.74
2023-04-11T01:00:03.132Z,1011.65
2023-04-11T01:05:03.763Z,1011.75
2023-04-11T01:10:03.647Z,1011.59
2023-04-11T01:15:03.023Z,1011.59
2023-04-11T01:20:03.760Z,1011.65
2023-04-11T01:25:03.371Z,1011.63
2023-04-11T01:30:03.208Z,1011.35
2023-04-11T01:35:03.236Z,1011.41
2023-04-11T01:40:03.246Z,1011.31
2023-04-11T01:45:03.353Z,1011.34
2023-04-11T01:50:03.155Z,1011.21
2023-04-11T01:55:03.471Z,1011.12
2023-04-11T02:00:03.853Z,1011.01
2023-04-11T02:05:03.541Z,1010.91
2023-04-11T02:10:03.643Z,1010.79
2023-04-11T02:15:03.379Z,1010.72
2023-04-11T02:20:03.593Z,1010.45
2023-04-11T02:25:03.201Z,1010.45
2023-04-11T02:30:02.864Z,1010.43
2023-04-11T02:35:03.679Z,1010.36
2023-04-11T02:40:03.370Z,1010.36
2023-04-11T02:45:03.103Z,1010.36
2023-04-11T02:50:02.909Z,1010.35
2023-04-11T02:55:03.995Z,1010.19
2023-04-11T03:00:02.989Z,1010.21
2023-04-11T03:05:03.562Z,1010.19
2023-04-11T03:10:03.646Z,1010.26
2023-04-11T03:15:03.320Z,1010.32
2023-04-11T03:20:03.694Z,1010.28
2023-04-11T03:25:03.253Z,1010.28
2023-04-11T03:30:03.104Z,1010.28
2023-04-11T03:35:03.749Z,1010.23
2023-04-11T03:40:03.528Z,1010.1
2023-04-11T03:45:03.375Z,1009.92
2023-04-11T03:50:03.023Z,1009.76
2023-04-11T03:55:04.086Z,1009.64
2023-04-11T04:00:03.528Z,1009.66
2023-04-11T04:05:03.657Z,1009.65
2023-04-11T04:10:03.020Z,1009.69
2023-04-11T04:15:03.022Z,1009.62
2023-04-11T04:20:03.700Z,1009.54
2023-04-11T04:25:03.492Z,1009.5
2023-04-11T04:30:05.316Z,1009.52
2023-04-11T04:35:03.073Z,1009.57
2023-04-11T04:40:03.747Z,1009.55
2023-04-11T04:45:03.748Z,1009.6
2023-04-11T04:50:03.572Z,1009.58
2023-04-11T04:55:03.604Z,1009.54
2023-04-11T05:00:03.851Z,1009.28
2023-04-11T05:05:03.707Z,1009.37
2023-04-11T05:10:03.492Z,1009.41
2023-04-11T05:15:03.254Z,1009.47
2023-04-11T05:20:02.910Z,1009.62
2023-04-11T05:25:02.896Z,1009.55
2023-04-11T05:30:03.601Z,1009.59
2023-04-11T05:35:03.256Z,1009.54
2023-04-11T05:40:03.069Z,1009.63
2023-04-11T05:45:03.111Z,1009.65
2023-04-11T05:50:02.868Z,1009.62
2023-04-11T05:55:04.225Z,1009.54
2023-04-11T06:00:03.740Z,1009.42
2023-04-11T06:05:03.127Z,1009.25
2023-04-11T06:10:03.811Z,1009.3
2023-04-11T06:15:03.349Z,1009.62
2023-04-11T06:20:06.757Z,1009.56
2023-04-11T06:25:03.759Z,1009.48
2023-04-11T06:30:03.307Z,1009.51
2023-04-11T06:35:03.020Z,1009.56
2023-04-11T06:40:02.878Z,1009.71
2023-04-11T06:45:03.694Z,1009.74
2023-04-11T06:50:03.354Z,1009.76
2023-04-11T06:55:03.067Z,1009.78
2023-04-11T07:00:03.183Z,1009.64
2023-04-11T07:05:03.478Z,1009.6
2023-04-11T07:10:03.022Z,1009.72
2023-04-11T07:15:03.744Z,1009.63
2023-04-11T07:20:03.778Z,1009.68
2023-04-11T07:25:03.526Z,1009.79
2023-04-11T07:30:03.551Z,1009.87
2023-04-11T07:35:03.003Z,1009.83
2023-04-11T07:40:02.915Z,1009.73
2023-04-11T07:45:02.821Z,1009.7
2023-04-11T07:50:02.955Z,1009.8
2023-04-11T07:55:04.447Z,1009.91
2023-04-11T08:00:03.362Z,1009.82
2023-04-11T08:05:04.241Z,1009.92
2023-04-11T08:10:03.262Z,1009.92
2023-04-11T08:15:03.352Z,1010.02
2023-04-11T08:20:03.440Z,1010.1
2023-04-11T08:25:02.945Z,1010.17
2023-04-11T08:30:03.633Z,1010.1
2023-04-11T08:35:03.848Z,1010.17
2023-04-11T08:40:03.527Z,1010.02
2023-04-11T08:45:03.606Z,1010.07
2023-04-11T08:50:03.061Z,1010.12
2023-04-11T08:55:03.139Z,1010.13
2023-04-11T09:00:03.469Z,1010.15
2023-04-11T09:05:03.670Z,1010.29
2023-04-11T09:10:03.127Z,1010.28
2023-04-11T09:15:02.881Z,1010.18
2023-04-11T09:20:03.698Z,1010.18
2023-04-11T09:25:03.428Z,1010.06
2023-04-11T09:30:03.414Z,1010.06
2023-04-11T09:35:03.160Z,1009.99
2023-04-11T09:40:06.108Z,1010.01
2023-04-11T09:45:03.035Z,1009.9
2023-04-11T09:50:03.716Z,1009.86
2023-04-11T09:55:03.928Z,1010.01
2023-04-11T10:00:03.628Z,1010.22
2023-04-11T10:05:03.702Z,1010.58
2023-04-11T10:10:03.208Z,1010.57
2023-04-11T10:15:03.253Z,1010.84
2023-04-11T10:20:02.329Z,1011.04
2023-04-11T10:25:02.880Z,1011.18
2023-04-11T10:30:03.689Z,1011.34
2023-04-11T10:35:03.372Z,1011.22
2023-04-11T10:40:03.284Z,1010.88
2023-04-11T10:45:03.334Z,1010.89
2023-04-11T10:50:03.153Z,1010.93
2023-04-11T10:55:03.532Z,1010.92
2023-04-11T11:05:03.840Z,1010.79
2023-04-11T11:10:03.172Z,1010.84
2023-04-11T11:15:03.232Z,1010.91
2023-04-11T11:20:02.952Z,1010.9
2023-04-11T11:25:03.659Z,1010.95
2023-04-11T11:30:03.515Z,1010.92
2023-04-11T11:35:03.232Z,1010.87
2023-04-11T11:40:03.097Z,1010.86
2023-04-11T11:45:02.947Z,1010.98
2023-04-11T11:50:03.185Z,1011.03
2023-04-11T11:55:03.628Z,1011.09
2023-04-11T12:00:03.367Z,1011.09
2023-04-11T12:05:03.738Z,1011.12
2023-04-11T12:10:02.844Z,1011.09
2023-04-11T12:15:03.850Z,1011.13
2023-04-11T12:20:03.548Z,1011.21
2023-04-11T12:25:03.203Z,1011.25
2023-04-11T12:30:03.299Z,1011.16
2023-04-11T12:35:02.984Z,1011.28
2023-04-11T12:40:02.775Z,1011.4
2023-04-11T12:45:03.529Z,1011.21
2023-04-11T12:50:03.536Z,1011.23
2023-04-11T12:55:02.836Z,1011.19
2023-04-11T13:00:03.802Z,1011.2
2023-04-11T13:05:04.189Z,1011.22
2023-04-11T13:10:03.439Z,1011.33
2023-04-11T13:15:03.353Z,1011.27
2023-04-11T13:20:03.560Z,1011.26
2023-04-11T13:25:03.140Z,1011.24
2023-04-11T13:30:02.979Z,1011.27
2023-04-11T13:35:03.801Z,1011.19
2023-04-11T13:40:03.654Z,1011.64
2023-04-11T13:45:03.613Z,1011.64
2023-04-11T13:50:02.834Z,1011.72
2023-04-11T13:55:03.770Z,1011.67
2023-04-11T14:00:03.257Z,1011.81
2023-04-11T14:05:03.009Z,1011.69
2023-04-11T14:10:02.980Z,1011.76
2023-04-11T14:15:03.715Z,1011.7
2023-04-11T14:20:02.788Z,1011.69
2023-04-11T14:25:03.554Z,1011.61
2023-04-11T14:30:03.310Z,1011.82
2023-04-11T14:35:03.289Z,1011.65
2023-04-11T14:40:02.783Z,1011.63
2023-04-11T14:45:04.010Z,1011.79
2023-04-11T14:50:03.378Z,1011.77
2023-04-11T14:55:03.490Z,1011.75
2023-04-11T15:00:02.839Z,1011.71
2023-04-11T15:05:02.909Z,1011.83
2023-04-11T15:10:03.590Z,1011.63
2023-04-11T15:15:03.346Z,1011.72
2023-04-11T15:20:03.147Z,1011.69
2023-04-11T15:25:03.124Z,1011.74
2023-04-11T15:30:02.867Z,1011.62
2023-04-11T15:35:03.505Z,1011.7
2023-04-11T15:40:03.325Z,1011.79
2023-04-11T15:45:03.267Z,1011.78
2023-04-11T15:50:02.925Z,1011.8
2023-04-11T15:55:03.523Z,1011.87
2023-04-11T16:00:03.512Z,1011.99
2023-04-11T16:05:04.120Z,1012.07
2023-04-11T16:10:02.891Z,1011.91
2023-04-11T16:15:02.844Z,1012.07
2023-04-11T16:20:03.896Z,1012.21
2023-04-11T16:25:03.805Z,1012.44
2023-04-11T16:30:03.827Z,1012.56
2023-04-11T16:35:03.198Z,1012.56
2023-04-11T16:40:04.399Z,1012.86
2023-04-11T16:45:02.891Z,1013.02
2023-04-11T16:50:04.012Z,1012.99
2023-04-11T16:55:03.624Z,1013.09
2023-04-11T17:00:03.218Z,1013.34
2023-04-11T17:05:02.931Z,1013.27
2023-04-11T17:10:03.091Z,1013.35
2023-04-11T17:15:03.809Z,1013.41
2023-04-11T17:20:03.505Z,1013.44
2023-04-11T17:25:03.190Z,1013.54
2023-04-11T17:30:02.973Z,1013.55
2023-04-11T17:35:03.704Z,1013.71
2023-04-11T17:40:02.997Z,1013.8
2023-04-11T17:45:19.177Z,1013.77
2023-04-11T17:50:03.229Z,1013.9
2023-04-11T17:55:03.995Z,1013.88
2023-04-11T18:00:03.551Z,1014.06
2023-04-11T18:05:25.670Z,1014.14
2023-04-11T18:10:03.631Z,1014.07
2023-04-11T18:15:03.347Z,1014.23
2023-04-11T18:20:03.423Z,1014.28
2023-04-11T18:25:03.392Z,1014.11
2023-04-11T18:30:03.178Z,1014.23
2023-04-11T18:35:03.068Z,1014.13
2023-04-11T18:40:02.867Z,1014.18
2023-04-11T18:45:04.628Z,1014.29
2023-04-11T18:50:03.448Z,1014.29
2023-04-11T18:55:03.751Z,1014.35
2023-04-11T19:00:13.509Z,1014.46
2023-04-11T19:05:04.726Z,1014.48
2023-04-11T19:10:03.754Z,1014.34
2023-04-11T19:15:03.668Z,1014.34
2023-04-11T19:20:03.463Z,1014.27
2023-04-11T19:25:03.067Z,1014.32
2023-04-11T19:30:03.804Z,1014.24
2023-04-11T19:35:03.743Z,1014.23
2023-04-11T19:40:03.439Z,1014.2
2023-04-11T19:45:03.316Z,1014.08
2023-04-11T19:50:02.954Z,1014.13
2023-04-11T19:55:04.023Z,1014.08
2023-04-11T20:00:03.413Z,1014.1
2023-04-11T20:05:03.376Z,1014.09
2023-04-11T20:10:03.017Z,1014.13
2023-04-11T20:15:03.750Z,1014.12
2023-04-11T20:20:03.126Z,1014.11
2023-04-11T20:25:03.293Z,1014.21
2023-04-11T20:30:04.072Z,1014.17
2023-04-11T20:35:03.282Z,1014.3
2023-04-11T20:40:03.944Z,1014.28
2023-04-11T20:45:02.956Z,1014.35
2023-04-11T20:50:03.159Z,1014.38
2023-04-11T20:55:03.650Z,1014.36
2023-04-11T21:00:03.783Z,1014.42
2023-04-11T21:05:03.566Z,1014.39
2023-04-11T21:10:03.319Z,1014.36
2023-04-11T21:15:03.208Z,1014.31
2023-04-11T21:20:03.080Z,1014.28
2023-04-11T21:25:03.910Z,1014.23
2023-04-11T21:30:03.023Z,1014.22
2023-04-11T21:35:03.944Z,1014.22
2023-04-11T21:40:03.504Z,1014.25
2023-04-11T21:45:03.314Z,1014.22
2023-04-11T21:50:03.029Z,1014.45
2023-04-11T21:55:04.008Z,1014.5
2023-04-11T22:00:03.236Z,1014.52
2023-04-11T22:05:06.748Z,1014.62
2023-04-11T22:10:03.124Z,1014.6
2023-04-11T22:15:03.706Z,1014.81
2023-04-11T22:20:03.608Z,1014.83
2023-04-11T22:25:03.368Z,1014.84
2023-04-11T22:30:03.303Z,1014.87
2023-04-11T22:35:03.079Z,1014.79
2023-04-11T22:40:03.111Z,1014.7
2023-04-11T22:45:03.239Z,1014.61
2023-04-11T22:50:02.920Z,1014.48
2023-04-11T22:55:04.283Z,1014.41
2023-04-11T23:00:03.699Z,1014.43
2023-04-11T23:05:03.441Z,1014.3
2023-04-11T23:10:03.236Z,1014.28
2023-04-11T23:15:03.143Z,1014.22
2023-04-11T23:20:02.955Z,1014.24
2023-04-11T23:25:03.732Z,1014.26
2023-04-11T23:30:03.435Z,1014.12
2023-04-11T23:35:03.292Z,1014.12
2023-04-11T23:40:03.140Z,1013.95
2023-04-11T23:45:03.680Z,1013.98
2023-04-11T23:50:03.361Z,1013.91
2023-04-11T23:55:03.038Z,1013.76
